createdAt,value
2022-11-26T00:02:09.992Z,19.73
2022-11-26T00:04:12.191Z,19.97
2022-11-26T00:06:31.860Z,20.67
2022-11-26T00:08:35.593Z,22.67
2022-11-26T00:10:37.573Z,21.17
2022-11-26T00:12:39.707Z,23.63
2022-11-26T00:14:41.773Z,20.63
2022-11-26T00:16:45.041Z,18.80
2022-11-26T00:18:47.372Z,21.43
2022-11-26T00:20:54.676Z,20.00
2022-11-26T00:22:58.818Z,22.33
2022-11-26T00:25:00.872Z,25.27
2022-11-26T00:27:02.977Z,22.83
2022-11-26T00:29:05.234Z,21.77
2022-11-26T00:31:16.252Z,20.77
2022-11-26T00:33:18.380Z,23.30
2022-11-26T00:35:20.725Z,24.17
2022-11-26T00:37:39.575Z,26.47
2022-11-26T00:39:41.824Z,21.93
2022-11-26T00:41:49.156Z,23.10
2022-11-26T00:43:51.865Z,25.43
2022-11-26T00:45:54.443Z,21.77
2022-11-26T00:48:00.590Z,24.33
2022-11-26T00:50:03.083Z,23.90
2022-11-26T00:52:21.824Z,23.60
2022-11-26T00:54:24.491Z,24.47
2022-11-26T00:56:26.998Z,22.17
2022-11-26T00:58:30.874Z,25.97
2022-11-26T01:00:34.650Z,23.80
2022-11-26T01:02:36.787Z,24.80
2022-11-26T01:04:39.031Z,26.97
2022-11-26T01:06:44.161Z,22.50
2022-11-26T01:08:46.712Z,25.87
2022-11-26T01:10:48.962Z,23.47
2022-11-26T01:12:52.149Z,23.03
2022-11-26T01:14:54.586Z,22.37
2022-11-26T01:16:57.379Z,21.67
2022-11-26T01:19:02.290Z,19.07
2022-11-26T01:21:04.618Z,17.37
2022-11-26T01:23:06.589Z,16.10
2022-11-26T01:25:08.996Z,14.60
2022-11-26T01:27:12.736Z,16.43
2022-11-26T01:29:17.211Z,13.07
2022-11-26T01:31:24.796Z,13.93
2022-11-26T01:33:26.846Z,14.70
2022-11-26T01:35:29.174Z,16.93
2022-11-26T01:37:31.233Z,14.97
2022-11-26T01:39:33.369Z,15.87
2022-11-26T01:42:05.918Z,15.47
2022-11-26T01:44:14.303Z,15.83
2022-11-26T01:46:19.629Z,18.10
2022-11-26T01:48:34.518Z,17.70
2022-11-26T01:50:39.733Z,20.07
2022-11-26T01:52:42.153Z,20.87
2022-11-26T01:54:46.448Z,20.60
2022-11-26T01:56:52.794Z,20.13
2022-11-26T01:59:03.163Z,19.60
2022-11-26T02:01:05.439Z,18.30
2022-11-26T02:03:09.192Z,19.13
2022-11-26T02:05:19.439Z,24.70
2022-11-26T02:07:21.647Z,23.27
2022-11-26T02:09:26.857Z,21.97
2022-11-26T02:11:29.212Z,19.80
2022-11-26T02:13:31.395Z,19.70
2022-11-26T02:15:58.355Z,22.23
2022-11-26T02:18:07.934Z,17.93
2022-11-26T02:20:18.985Z,16.70
2022-11-26T02:22:26.754Z,17.07
2022-11-26T02:24:44.275Z,16.83
2022-11-26T02:27:10.527Z,18.30
2022-11-26T02:29:15.422Z,20.43
2022-11-26T02:31:22.764Z,18.00
2022-11-26T02:33:54.646Z,15.87
2022-11-26T02:36:04.028Z,17.93
2022-11-26T02:38:11.618Z,16.83
2022-11-26T02:40:13.660Z,18.27
2022-11-26T02:42:28.593Z,18.83
2022-11-26T02:44:40.437Z,18.17
2022-11-26T02:46:45.899Z,18.50
2022-11-26T02:48:51.418Z,19.93
2022-11-26T02:51:00.656Z,17.53
2022-11-26T02:53:04.942Z,16.37
2022-11-26T02:55:08.513Z,16.20
2022-11-26T02:57:15.738Z,18.13
2022-11-26T02:59:18.419Z,17.47
2022-11-26T03:01:31.406Z,17.27
2022-11-26T03:03:38.429Z,16.77
2022-11-26T03:05:42.347Z,15.97
2022-11-26T03:07:49.465Z,22.83
2022-11-26T03:09:57.571Z,17.63
2022-11-26T03:11:59.796Z,18.20
2022-11-26T03:14:02.134Z,20.73
2022-11-26T03:16:04.899Z,18.67
2022-11-26T03:18:06.885Z,17.53
2022-11-26T03:20:11.918Z,17.70
2022-11-26T03:22:15.235Z,19.33
2022-11-26T03:24:17.186Z,19.47
2022-11-26T03:26:19.336Z,17.50
2022-11-26T03:28:21.591Z,17.47
2022-11-26T03:30:23.740Z,17.53
2022-11-26T03:32:25.877Z,22.70
2022-11-26T03:34:27.888Z,19.83
2022-11-26T03:36:32.018Z,19.83
2022-11-26T03:38:34.178Z,24.50
2022-11-26T03:40:37.034Z,21.33
2022-11-26T03:42:39.348Z,22.60
2022-11-26T03:44:41.488Z,19.33
2022-11-26T03:46:43.570Z,20.20
2022-11-26T03:48:46.945Z,22.40
2022-11-26T03:50:51.728Z,20.60
2022-11-26T03:52:53.711Z,20.60
2022-11-26T03:54:56.091Z,20.23
2022-11-26T03:56:58.259Z,21.83
2022-11-26T03:59:00.207Z,23.57
2022-11-26T04:01:09.342Z,27.53
2022-11-26T04:03:11.983Z,35.40
2022-11-26T04:05:14.147Z,35.10
2022-11-26T04:07:16.323Z,38.43
2022-11-26T04:09:18.384Z,34.37
2022-11-26T04:11:24.481Z,31.83
2022-11-26T04:13:26.736Z,34.57
2022-11-26T04:15:28.880Z,31.50
2022-11-26T04:17:31.097Z,26.93
2022-11-26T04:19:33.104Z,24.83
2022-11-26T04:21:35.550Z,27.90
2022-11-26T04:23:37.653Z,28.53
2022-11-26T04:25:39.657Z,30.87
2022-11-26T04:27:41.647Z,29.67
2022-11-26T04:29:46.680Z,31.50
2022-11-26T04:31:48.738Z,34.77
2022-11-26T04:33:51.088Z,33.10
2022-11-26T04:35:53.695Z,30.27
2022-11-26T04:37:56.103Z,27.33
2022-11-26T04:39:58.022Z,23.50
2022-11-26T04:41:59.957Z,29.23
2022-11-26T04:44:02.080Z,30.50
2022-11-26T04:46:07.803Z,29.70
2022-11-26T04:48:09.889Z,25.67
2022-11-26T04:50:12.522Z,29.77
2022-11-26T04:52:14.690Z,27.23
2022-11-26T04:54:19.567Z,30.07
2022-11-26T04:56:21.718Z,27.53
2022-11-26T04:58:23.806Z,26.73
2022-11-26T05:00:26.334Z,29.97
2022-11-26T05:02:28.348Z,31.83
2022-11-26T05:04:30.480Z,29.07
2022-11-26T05:06:32.603Z,26.97
2022-11-26T05:08:34.921Z,30.17
2022-11-26T05:10:37.040Z,27.33
2022-11-26T05:12:39.182Z,25.67
2022-11-26T05:14:41.129Z,29.13
2022-11-26T05:16:43.255Z,28.37
2022-11-26T05:18:45.769Z,29.63
2022-11-26T05:20:48.261Z,24.43
2022-11-26T05:22:50.299Z,28.33
2022-11-26T05:24:52.372Z,28.60
2022-11-26T05:26:57.216Z,26.93
2022-11-26T05:28:59.628Z,26.03
2022-11-26T05:31:03.012Z,24.83
2022-11-26T05:33:05.430Z,29.10
2022-11-26T05:35:07.776Z,24.20
2022-11-26T05:37:09.909Z,21.43
2022-11-26T05:39:11.955Z,26.10
2022-11-26T05:41:14.121Z,25.93
2022-11-26T05:43:16.672Z,25.07
2022-11-26T05:45:18.628Z,34.77
2022-11-26T05:47:20.638Z,32.43
2022-11-26T05:49:22.885Z,38.73
2022-11-26T05:51:24.856Z,48.70
2022-11-26T05:53:27.845Z,38.23
2022-11-26T05:55:30.232Z,37.43
2022-11-26T05:57:32.359Z,33.37
2022-11-26T05:59:36.592Z,31.33
2022-11-26T06:01:39.049Z,34.47
2022-11-26T06:03:42.085Z,32.13
2022-11-26T06:05:44.339Z,29.33
2022-11-26T06:07:46.765Z,27.70
2022-11-26T06:09:48.944Z,22.83
2022-11-26T06:11:51.093Z,27.80
2022-11-26T06:13:53.152Z,22.13
2022-11-26T06:15:55.241Z,21.90
2022-11-26T06:17:57.342Z,22.23
2022-11-26T06:19:59.360Z,19.23
2022-11-26T06:22:01.449Z,21.03
2022-11-26T06:24:03.753Z,23.23
2022-11-26T06:26:11.217Z,20.43
2022-11-26T06:28:13.151Z,23.87
2022-11-26T06:30:15.109Z,27.30
2022-11-26T06:32:17.364Z,30.70
2022-11-26T06:34:22.580Z,35.60
2022-11-26T06:36:24.751Z,39.17
2022-11-26T06:38:27.305Z,37.37
2022-11-26T06:40:29.552Z,38.20
2022-11-26T06:42:31.635Z,39.53
2022-11-26T06:44:36.925Z,43.77
2022-11-26T06:46:39.124Z,48.77
2022-11-26T06:48:43.462Z,45.07
2022-11-26T06:50:45.740Z,44.73
2022-11-26T06:52:52.431Z,40.07
2022-11-26T06:54:54.739Z,40.47
2022-11-26T06:56:56.962Z,37.27
2022-11-26T06:58:58.887Z,34.97
2022-11-26T07:01:00.794Z,40.10
2022-11-26T07:03:02.694Z,56.20
2022-11-26T07:05:04.984Z,60.03
2022-11-26T07:07:07.356Z,67.80
2022-11-26T07:09:11.377Z,70.70
2022-11-26T07:11:13.798Z,72.60
2022-11-26T07:13:15.874Z,66.23
2022-11-26T07:15:17.958Z,56.53
2022-11-26T07:17:19.860Z,54.40
2022-11-26T07:19:21.903Z,54.07
2022-11-26T07:21:24.828Z,50.67
2022-11-26T07:23:27.105Z,57.60
2022-11-26T07:25:30.087Z,53.40
2022-11-26T07:27:32.214Z,52.27
2022-11-26T07:29:36.902Z,44.03
2022-11-26T07:31:38.996Z,46.93
2022-11-26T07:33:41.361Z,44.20
2022-11-26T07:35:43.420Z,41.67
2022-11-26T07:37:45.768Z,42.87
2022-11-26T07:39:48.204Z,42.33
2022-11-26T07:41:50.228Z,48.83
2022-11-26T07:43:52.594Z,48.87
2022-11-26T07:45:54.885Z,44.83
2022-11-26T07:47:57.251Z,43.33
2022-11-26T07:49:59.558Z,41.27
2022-11-26T07:52:01.539Z,43.20
2022-11-26T07:54:06.097Z,44.77
2022-11-26T07:56:08.252Z,32.80
2022-11-26T07:58:10.208Z,32.13
2022-11-26T08:00:12.834Z,30.10
2022-11-26T08:02:15.805Z,31.83
2022-11-26T08:04:18.066Z,29.90
2022-11-26T08:06:22.890Z,31.03
2022-11-26T08:08:25.031Z,28.03
2022-11-26T08:10:27.606Z,33.30
2022-11-26T08:12:29.951Z,37.97
2022-11-26T08:14:31.983Z,32.37
2022-11-26T08:16:34.273Z,29.80
2022-11-26T08:18:36.926Z,35.10
2022-11-26T08:20:38.845Z,28.53
2022-11-26T08:22:43.282Z,28.77
2022-11-26T08:24:45.209Z,30.43
2022-11-26T08:26:47.520Z,27.37
2022-11-26T08:28:49.448Z,26.47
2022-11-26T08:31:00.191Z,26.87
2022-11-26T08:33:02.144Z,29.10
2022-11-26T08:35:12.714Z,29.60
2022-11-26T08:37:14.563Z,27.10
2022-11-26T08:39:18.960Z,31.70
2022-11-26T08:41:21.051Z,28.43
2022-11-26T08:43:34.541Z,29.83
2022-11-26T08:45:53.301Z,33.73
2022-11-26T08:47:55.411Z,39.70
2022-11-26T08:49:57.594Z,37.43
2022-11-26T08:51:59.537Z,37.27
2022-11-26T08:54:01.879Z,35.83
2022-11-26T08:56:09.773Z,33.83
2022-11-26T08:58:11.876Z,32.67
2022-11-26T09:00:14.691Z,34.20
2022-11-26T09:02:19.227Z,31.80
2022-11-26T09:04:21.296Z,30.63
2022-11-26T09:06:25.405Z,32.10
2022-11-26T09:08:28.132Z,28.23
2022-11-26T09:10:30.040Z,28.63
2022-11-26T09:12:32.172Z,27.77
2022-11-26T09:14:40.268Z,31.50
2022-11-26T09:16:42.902Z,30.23
2022-11-26T09:18:45.166Z,25.63
2022-11-26T09:20:48.593Z,29.27
2022-11-26T09:22:52.513Z,27.60
2022-11-26T09:24:54.560Z,25.53
2022-11-26T09:26:56.501Z,26.43
2022-11-26T09:28:58.635Z,28.63
2022-11-26T09:31:01.780Z,28.30
2022-11-26T09:33:03.951Z,27.00
2022-11-26T09:35:06.395Z,28.67
2022-11-26T09:37:08.815Z,28.03
2022-11-26T09:39:13.092Z,30.07
2022-11-26T09:41:44.222Z,29.47
2022-11-26T09:44:20.007Z,27.27
2022-11-26T09:46:40.920Z,31.80
2022-11-26T09:48:55.858Z,30.93
2022-11-26T09:51:06.968Z,29.17
2022-11-26T09:53:42.861Z,30.20
2022-11-26T09:55:52.170Z,27.70
2022-11-26T09:58:12.872Z,30.33
2022-11-26T10:00:24.694Z,28.70
2022-11-26T10:02:27.045Z,27.80
2022-11-26T10:04:33.578Z,25.80
2022-11-26T10:07:01.417Z,28.37
2022-11-26T10:09:30.689Z,25.77
2022-11-26T10:11:41.384Z,25.20
2022-11-26T10:14:08.355Z,25.93
2022-11-26T10:16:30.984Z,24.53
2022-11-26T10:19:12.302Z,30.80
2022-11-26T10:21:26.991Z,31.90
2022-11-26T10:24:01.787Z,27.80
2022-11-26T10:26:20.349Z,30.10
2022-11-26T10:28:30.194Z,32.90
2022-11-26T10:30:33.021Z,31.03
2022-11-26T10:32:40.162Z,32.27
2022-11-26T10:34:52.451Z,29.30
2022-11-26T10:36:55.208Z,35.57
2022-11-26T10:38:59.729Z,34.90
2022-11-26T10:41:01.913Z,39.37
2022-11-26T10:43:20.910Z,38.47
2022-11-26T10:45:26.036Z,40.13
2022-11-26T10:47:30.368Z,36.03
2022-11-26T10:49:32.670Z,32.30
2022-11-26T10:51:38.130Z,33.77
2022-11-26T10:53:56.617Z,32.93
2022-11-26T10:56:01.811Z,33.63
2022-11-26T10:58:19.544Z,29.93
2022-11-26T11:00:54.355Z,30.00
2022-11-26T11:02:56.750Z,29.93
2022-11-26T11:05:02.981Z,33.70
2022-11-26T11:07:10.364Z,27.43
2022-11-26T11:09:35.797Z,29.23
2022-11-26T11:11:37.750Z,27.47
2022-11-26T11:13:42.103Z,32.83
2022-11-26T11:15:44.609Z,29.07
2022-11-26T11:17:54.685Z,33.37
2022-11-26T11:19:59.751Z,30.37
2022-11-26T11:22:02.931Z,30.83
2022-11-26T11:24:18.814Z,26.63
2022-11-26T11:26:24.900Z,25.23
2022-11-26T11:28:30.109Z,24.20
2022-11-26T11:30:36.736Z,24.33
2022-11-26T11:32:43.488Z,26.83
2022-11-26T11:34:46.284Z,26.00
2022-11-26T11:37:03.187Z,23.93
2022-11-26T11:39:05.574Z,29.33
2022-11-26T11:41:19.140Z,25.50
2022-11-26T11:43:25.351Z,27.83
2022-11-26T11:45:42.739Z,28.90
2022-11-26T11:47:48.062Z,29.03
2022-11-26T11:50:11.920Z,26.70
2022-11-26T11:52:32.900Z,27.90
2022-11-26T11:55:13.909Z,27.53
2022-11-26T11:57:30.832Z,24.63
2022-11-26T11:59:58.418Z,27.87
2022-11-26T12:02:15.383Z,29.90
2022-11-26T12:04:25.306Z,31.43
2022-11-26T12:06:49.310Z,34.40
2022-11-26T12:09:03.423Z,34.63
2022-11-26T12:11:14.444Z,34.27
2022-11-26T12:13:17.414Z,31.43
2022-11-26T12:15:32.475Z,30.00
2022-11-26T12:17:49.493Z,37.37
2022-11-26T12:19:59.144Z,34.77
2022-11-26T12:22:11.023Z,30.77
2022-11-26T12:24:37.145Z,34.47
2022-11-26T12:26:57.751Z,81.47
2022-11-26T12:29:17.943Z,62.70
2022-11-26T12:31:36.504Z,62.57
2022-11-26T12:33:45.338Z,57.93
2022-11-26T12:35:53.639Z,60.30
2022-11-26T12:38:04.475Z,60.30
2022-11-26T12:40:12.063Z,58.00
2022-11-26T12:42:24.964Z,52.53
2022-11-26T12:44:32.617Z,56.13
2022-11-26T12:46:52.926Z,49.40
2022-11-26T12:49:04.166Z,43.57
2022-11-26T12:51:39.967Z,42.47
2022-11-26T12:53:47.756Z,42.03
2022-11-26T12:56:08.406Z,39.00
2022-11-26T12:58:34.896Z,36.13
2022-11-26T13:00:37.109Z,34.37
2022-11-26T13:02:48.427Z,30.43
2022-11-26T13:04:52.968Z,30.70
2022-11-26T13:07:07.599Z,26.07
2022-11-26T13:09:31.894Z,25.23
2022-11-26T13:11:55.831Z,25.37
2022-11-26T13:14:31.339Z,23.47
2022-11-26T13:16:41.939Z,27.97
2022-11-26T13:18:49.674Z,25.03
2022-11-26T13:21:31.165Z,29.70
2022-11-26T13:23:43.467Z,27.00
2022-11-26T13:26:06.405Z,29.77
2022-11-26T13:28:26.817Z,31.70
2022-11-26T13:30:31.414Z,35.10
2022-11-26T13:32:58.106Z,39.57
2022-11-26T13:35:12.228Z,133.47
2022-11-26T13:37:28.757Z,125.83
2022-11-26T13:40:01.482Z,129.80
2022-11-26T13:42:28.046Z,128.37
2022-11-26T13:44:54.708Z,110.67
2022-11-26T13:47:22.652Z,88.97
2022-11-26T13:49:45.617Z,76.03
2022-11-26T13:51:52.900Z,62.33
2022-11-26T13:54:13.353Z,63.97
2022-11-26T13:56:25.475Z,62.20
2022-11-26T13:58:49.918Z,62.43
2022-11-26T14:00:52.071Z,56.20
2022-11-26T14:02:54.497Z,48.50
2022-11-26T14:04:56.580Z,41.27
2022-11-26T14:07:04.206Z,39.73
2022-11-26T14:09:06.506Z,38.37
2022-11-26T14:11:09.593Z,43.03
2022-11-26T14:13:12.605Z,44.17
2022-11-26T14:15:42.735Z,40.40
2022-11-26T14:17:57.233Z,35.97
2022-11-26T14:20:00.057Z,36.10
2022-11-26T14:22:03.980Z,38.83
2022-11-26T14:24:06.313Z,46.17
2022-11-26T14:26:25.691Z,51.20
2022-11-26T14:28:28.258Z,46.53
2022-11-26T14:30:32.706Z,40.67
2022-11-26T14:32:53.286Z,43.90
2022-11-26T14:34:57.228Z,36.17
2022-11-26T14:37:00.805Z,34.77
2022-11-26T14:39:16.873Z,34.30
2022-11-26T14:41:19.064Z,32.47
2022-11-26T14:43:22.477Z,42.10
2022-11-26T14:45:25.262Z,45.43
2022-11-26T14:47:28.569Z,51.57
2022-11-26T14:49:41.664Z,45.80
2022-11-26T14:51:49.275Z,48.80
2022-11-26T14:53:54.285Z,51.17
2022-11-26T14:55:57.152Z,40.27
2022-11-26T14:58:18.570Z,43.10
2022-11-26T15:00:27.607Z,42.77
2022-11-26T15:02:31.220Z,50.60
2022-11-26T15:04:39.147Z,43.73
2022-11-26T15:06:43.368Z,50.20
2022-11-26T15:08:45.476Z,52.23
2022-11-26T15:11:01.583Z,54.57
2022-11-26T15:13:14.669Z,56.53
2022-11-26T15:15:20.794Z,60.00
2022-11-26T15:17:25.327Z,56.03
2022-11-26T15:19:31.792Z,55.47
2022-11-26T15:21:34.697Z,46.17
2022-11-26T15:23:41.526Z,44.27
2022-11-26T15:25:49.680Z,45.27
2022-11-26T15:28:15.675Z,43.63
2022-11-26T15:30:26.939Z,42.10
2022-11-26T15:32:33.878Z,39.97
2022-11-26T15:34:36.767Z,39.40
2022-11-26T15:36:38.949Z,35.23
2022-11-26T15:39:03.510Z,34.63
2022-11-26T15:41:18.601Z,35.57
2022-11-26T15:43:21.014Z,34.43
2022-11-26T15:45:26.730Z,36.87
2022-11-26T15:47:30.195Z,39.60
2022-11-26T15:49:37.213Z,37.83
2022-11-26T15:51:43.913Z,38.77
2022-11-26T15:53:48.210Z,38.63
2022-11-26T15:55:51.074Z,46.77
2022-11-26T15:57:53.452Z,48.73
2022-11-26T16:00:01.120Z,45.43
2022-11-26T16:02:23.895Z,48.13
2022-11-26T16:04:50.203Z,43.23
2022-11-26T16:07:08.889Z,39.87
2022-11-26T16:09:14.884Z,44.63
2022-11-26T16:11:21.999Z,53.03
2022-11-26T16:13:28.930Z,66.47
2022-11-26T16:15:31.367Z,81.80
2022-11-26T16:17:33.941Z,71.57
2022-11-26T16:20:26.581Z,63.87
2022-11-26T16:22:33.881Z,52.03
2022-11-26T16:24:44.812Z,45.53
2022-11-26T16:27:01.049Z,46.03
2022-11-26T16:29:03.061Z,45.13
2022-11-26T16:31:05.300Z,53.17
2022-11-26T16:33:07.434Z,51.53
2022-11-26T16:35:37.566Z,45.97
2022-11-26T16:37:34.420Z,57.87
2022-11-26T16:39:40.675Z,66.13
2022-11-26T16:41:43.180Z,55.60
2022-11-26T16:43:45.607Z,55.40
2022-11-26T16:45:49.828Z,53.07
2022-11-26T16:47:54.634Z,48.53
2022-11-26T16:49:56.902Z,50.90
2022-11-26T16:51:59.010Z,61.80
2022-11-26T16:54:01.324Z,58.43
2022-11-26T16:56:03.708Z,58.97
2022-11-26T16:58:05.962Z,61.53
2022-11-26T17:00:19.720Z,47.93
2022-11-26T17:02:23.625Z,51.87
2022-11-26T17:04:25.967Z,52.47
2022-11-26T17:06:31.294Z,59.77
2022-11-26T17:08:37.156Z,81.33
2022-11-26T17:10:40.557Z,77.50
2022-11-26T17:12:42.929Z,67.07
2022-11-26T17:14:45.827Z,78.13
2022-11-26T17:16:47.912Z,75.63
2022-11-26T17:18:50.846Z,68.37
2022-11-26T17:20:54.122Z,58.60
2022-11-26T17:22:56.237Z,57.40
2022-11-26T17:24:58.227Z,54.77
2022-11-26T17:27:04.221Z,57.23
2022-11-26T17:29:06.195Z,58.53
2022-11-26T17:31:08.114Z,53.73
2022-11-26T17:33:11.398Z,54.67
2022-11-26T17:35:13.516Z,55.10
2022-11-26T17:37:23.219Z,60.40
2022-11-26T17:39:25.343Z,68.10
2022-11-26T17:41:27.311Z,69.57
2022-11-26T17:43:29.498Z,63.07
2022-11-26T17:45:31.789Z,54.10
2022-11-26T17:47:33.956Z,59.83
2022-11-26T17:49:36.119Z,56.17
2022-11-26T17:51:38.380Z,62.57
2022-11-26T17:53:41.245Z,60.00
2022-11-26T17:55:43.289Z,63.53
2022-11-26T17:57:45.237Z,61.20
2022-11-26T17:59:47.351Z,57.33
2022-11-26T18:01:49.504Z,60.43
2022-11-26T18:03:53.050Z,61.87
2022-11-26T18:05:55.178Z,58.23
2022-11-26T18:07:57.320Z,62.20
2022-11-26T18:09:59.547Z,59.93
2022-11-26T18:12:02.650Z,59.00
2022-11-26T18:14:05.069Z,58.17
2022-11-26T18:16:07.207Z,72.57
2022-11-26T18:18:09.232Z,74.27
2022-11-26T18:20:11.666Z,66.20
2022-11-26T18:22:17.275Z,67.17
2022-11-26T18:24:19.496Z,59.97
2022-11-26T18:26:22.180Z,66.70
2022-11-26T18:28:24.264Z,77.03
2022-11-26T18:30:26.573Z,90.47
2022-11-26T18:32:28.963Z,69.70
2022-11-26T18:34:31.060Z,67.03
2022-11-26T18:36:33.034Z,73.20
2022-11-26T18:38:37.551Z,63.97
2022-11-26T18:40:39.465Z,62.70
2022-11-26T18:42:42.112Z,61.90
2022-11-26T18:44:44.149Z,56.83
2022-11-26T18:46:46.238Z,54.77
2022-11-26T18:48:51.247Z,51.80
2022-11-26T18:50:57.868Z,47.13
2022-11-26T18:53:00.004Z,53.67
2022-11-26T18:55:07.592Z,56.30
2022-11-26T18:57:09.691Z,49.60
2022-11-26T18:59:13.586Z,47.10
2022-11-26T19:01:18.923Z,48.83
2022-11-26T19:03:23.812Z,55.70
2022-11-26T19:05:26.022Z,61.87
2022-11-26T19:07:28.340Z,55.67
2022-11-26T19:09:30.845Z,45.93
2022-11-26T19:11:33.916Z,48.57
2022-11-26T19:13:37.093Z,60.50
2022-11-26T19:15:46.172Z,69.77
2022-11-26T19:17:48.366Z,83.47
2022-11-26T19:19:50.460Z,96.53
2022-11-26T19:21:59.367Z,110.80
2022-11-26T19:24:06.049Z,113.00
2022-11-26T19:26:08.348Z,92.43
2022-11-26T19:28:12.529Z,88.07
2022-11-26T19:30:16.685Z,75.53
2022-11-26T19:32:18.803Z,80.73
2022-11-26T19:34:20.766Z,62.93
2022-11-26T19:36:22.978Z,65.13
2022-11-26T19:38:25.328Z,64.10
2022-11-26T19:40:27.491Z,89.13
2022-11-26T19:42:31.211Z,90.13
2022-11-26T19:44:34.784Z,81.50
2022-11-26T19:46:41.088Z,75.83
2022-11-26T19:48:50.240Z,62.70
2022-11-26T19:50:55.793Z,63.33
2022-11-26T19:52:57.731Z,81.13
2022-11-26T19:54:59.683Z,74.57
2022-11-26T19:57:01.846Z,70.53
2022-11-26T19:59:04.661Z,57.77
2022-11-26T20:10:02.876Z,83.27
2022-11-26T20:12:04.919Z,66.20
2022-11-26T20:14:11.418Z,56.60
2022-11-26T20:16:21.964Z,52.67
2022-11-26T20:22:27.677Z,51.90
2022-11-26T20:24:30.227Z,48.77
2022-11-26T20:26:36.179Z,47.80
2022-11-26T20:28:38.808Z,44.63
2022-11-26T20:30:41.177Z,48.60
2022-11-26T20:32:43.338Z,46.47
2022-11-26T20:34:45.426Z,47.40
2022-11-26T20:36:47.758Z,49.63
2022-11-26T20:38:57.783Z,53.83
2022-11-26T20:40:59.631Z,49.23
2022-11-26T20:43:01.717Z,48.93
2022-11-26T20:45:04.849Z,42.13
2022-11-26T20:47:06.669Z,43.83
2022-11-26T20:49:10.951Z,46.30
2022-11-26T20:51:16.889Z,44.10
2022-11-26T20:53:18.955Z,45.30
2022-11-26T20:55:22.060Z,41.83
2022-11-26T20:57:24.030Z,43.97
2022-11-26T20:59:25.997Z,45.33
2022-11-26T21:01:29.354Z,47.73
2022-11-26T21:03:31.760Z,43.13
2022-11-26T21:05:34.354Z,44.50
2022-11-26T21:07:37.671Z,55.33
2022-11-26T21:09:40.228Z,62.47
2022-11-26T21:11:43.024Z,53.33
2022-11-26T21:13:45.518Z,48.37
2022-11-26T21:15:47.553Z,53.73
2022-11-26T21:17:49.927Z,58.20
2022-11-26T21:19:51.846Z,71.97
2022-11-26T21:21:53.682Z,94.23
2022-11-26T21:23:56.870Z,91.77
2022-11-26T21:25:58.680Z,95.87
2022-11-26T21:28:00.666Z,86.47
2022-11-26T21:30:03.356Z,88.47
2022-11-26T21:32:05.761Z,111.77
2022-11-26T21:34:08.484Z,120.23
2022-11-26T21:36:13.380Z,121.93
2022-11-26T21:38:15.500Z,121.03
2022-11-26T21:40:20.593Z,114.27
2022-11-26T21:42:22.660Z,99.47
2022-11-26T21:44:27.817Z,78.90
2022-11-26T21:46:34.885Z,67.30
2022-11-26T21:48:39.867Z,58.40
2022-11-26T21:50:41.846Z,60.97
2022-11-26T21:52:44.024Z,55.90
2022-11-26T21:54:45.878Z,64.43
2022-11-26T21:56:48.036Z,68.37
2022-11-26T21:58:55.762Z,72.33
2022-11-26T22:00:59.059Z,70.57
2022-11-26T22:03:00.920Z,71.67
2022-11-26T22:05:03.303Z,72.30
2022-11-26T22:07:05.421Z,83.10
2022-11-26T22:09:08.241Z,77.83
2022-11-26T22:11:15.502Z,68.17
2022-11-26T22:13:17.469Z,69.60
2022-11-26T22:15:19.511Z,58.37
2022-11-26T22:17:21.421Z,75.50
2022-11-26T22:19:23.752Z,80.17
2022-11-26T22:21:29.373Z,88.63
2022-11-26T22:23:31.534Z,76.23
2022-11-26T22:25:34.035Z,66.50
2022-11-26T22:27:36.006Z,63.47
2022-11-26T22:29:38.381Z,65.03
2022-11-26T22:31:41.474Z,60.43
2022-11-26T22:33:43.850Z,56.43
2022-11-26T22:35:45.959Z,56.63
2022-11-26T22:37:47.978Z,53.03
2022-11-26T22:39:53.852Z,48.33
2022-11-26T22:41:56.020Z,51.93
2022-11-26T22:44:02.296Z,46.40
2022-11-26T22:46:11.633Z,47.20
2022-11-26T22:48:14.042Z,54.87
2022-11-26T22:50:16.202Z,44.30
2022-11-26T22:52:20.625Z,43.57
2022-11-26T22:54:23.798Z,37.70
2022-11-26T22:56:26.921Z,38.93
2022-11-26T22:58:29.914Z,37.67
2022-11-26T23:01:02.161Z,39.77
2022-11-26T23:03:07.416Z,38.30
2022-11-26T23:05:10.034Z,47.33
2022-11-26T23:07:12.304Z,54.50
2022-11-26T23:09:14.950Z,50.43
2022-11-26T23:11:35.243Z,53.90
2022-11-26T23:13:39.794Z,50.67
2022-11-26T23:15:44.910Z,55.43
2022-11-26T23:17:47.116Z,48.37
2022-11-26T23:19:49.354Z,62.47
2022-11-26T23:21:51.472Z,57.60
2022-11-26T23:23:54.570Z,82.67
2022-11-26T23:25:56.587Z,92.23
2022-11-26T23:27:59.128Z,80.97
2022-11-26T23:30:01.317Z,78.73
2022-11-26T23:32:03.271Z,74.87
2022-11-26T23:34:05.902Z,80.90
2022-11-26T23:36:08.553Z,80.40
2022-11-26T23:38:10.390Z,64.97
2022-11-26T23:40:13.820Z,76.33
2022-11-26T23:42:16.217Z,61.53
2022-11-26T23:44:18.409Z,66.70
2022-11-26T23:46:23.140Z,59.50
2022-11-26T23:48:25.302Z,52.80
2022-11-26T23:50:27.735Z,53.07
2022-11-26T23:52:30.024Z,56.17
2022-11-26T23:54:32.227Z,51.97
2022-11-26T23:56:34.870Z,51.03
2022-11-26T23:58:37.591Z,51.23
